Time;durP1;ratioP1;P1;durP2;ratioP2;P2;SDS_P1;SDS_P2;PMS_P1;PMS_P2;Temp;Humidity;BMP_temperature;BMP_pressure;BME280_temperature;BME280_humidity;BME280_pressure;Samples;Min_cycle;Max_cycle;Signal;HPM_P1;HPM_P2
2023/07/11 00:01:45;;;;;;;4.40;4.00;;;20.00;99.90;;;;;;5071989;28;20176;-76
2023/07/11 00:04:11;;;;;;;5.45;4.82;;;20.00;99.90;;;;;;5071218;28;20173;-76
2023/07/11 00:06:38;;;;;;;4.30;4.00;;;19.90;99.90;;;;;;5053856;28;20181;-76
2023/07/11 00:09:04;;;;;;;6.00;4.40;;;19.90;99.90;;;;;;5071310;28;20232;-76
2023/07/11 00:11:30;;;;;;;4.57;4.13;;;19.80;99.90;;;;;;5071625;28;20189;-76
2023/07/11 00:13:55;;;;;;;4.93;4.53;;;19.80;99.90;;;;;;5071520;28;20178;-76
2023/07/11 00:16:21;;;;;;;6.93;5.20;;;19.70;99.90;;;;;;5071803;28;20170;-76
2023/07/11 00:18:47;;;;;;;5.20;4.70;;;19.60;99.90;;;;;;5071529;28;20206;-76
2023/07/11 00:21:13;;;;;;;7.35;4.40;;;19.60;99.90;;;;;;5071557;28;20169;-76
2023/07/11 00:23:40;;;;;;;5.37;4.87;;;19.50;99.90;;;;;;5071147;28;20169;-77
2023/07/11 00:26:05;;;;;;;5.70;4.60;;;19.50;99.90;;;;;;5053658;28;20178;-76
2023/07/11 00:28:31;;;;;;;4.67;4.17;;;19.50;99.90;;;;;;5071462;28;20612;-75
2023/07/11 00:30:57;;;;;;;4.82;4.20;;;19.50;99.90;;;;;;5053539;28;20174;-75
2023/07/11 00:33:22;;;;;;;5.20;4.67;;;19.50;99.90;;;;;;5071179;28;20353;-75
2023/07/11 00:35:51;;;;;;;5.22;4.68;;;19.50;99.90;;;;;;5071606;28;20208;-75
2023/07/11 00:38:17;;;;;;;4.55;4.15;;;19.60;99.90;;;;;;5053200;28;20246;-75
2023/07/11 00:40:44;;;;;;;6.35;4.38;;;19.50;99.90;;;;;;5071304;28;20209;-74
2023/07/11 00:43:12;;;;;;;4.70;4.30;;;19.50;99.90;;;;;;5071172;28;20185;-75
2023/07/11 00:46:10;;;;;;;7.43;4.40;;;19.50;99.90;;;;;;5071224;28;20249;-74
2023/07/11 00:48:39;;;;;;;4.13;3.87;;;19.50;99.90;;;;;;5071432;28;20198;-74
2023/07/11 00:51:12;;;;;;;7.23;4.67;;;19.50;99.90;;;;;;5053347;28;20182;-74
2023/07/11 00:53:40;;;;;;;6.47;4.82;;;19.50;99.90;;;;;;5070941;28;20185;-74
2023/07/11 00:56:10;;;;;;;5.00;4.53;;;19.50;99.90;;;;;;5052224;28;20255;-74
2023/07/11 00:58:41;;;;;;;5.13;4.63;;;19.40;99.90;;;;;;5070995;28;20186;-74
2023/07/11 01:01:07;;;;;;;5.88;4.65;;;19.40;99.90;;;;;;5071310;28;20167;-74
2023/07/11 01:03:33;;;;;;;5.90;5.15;;;19.40;99.90;;;;;;5070995;28;20173;-74
2023/07/11 01:05:58;;;;;;;4.65;4.35;;;19.40;99.90;;;;;;5053136;28;20239;-74
2023/07/11 01:08:25;;;;;;;5.32;4.85;;;19.30;99.90;;;;;;5071018;28;20531;-74
2023/07/11 01:10:50;;;;;;;6.10;4.75;;;19.30;99.90;;;;;;5053398;28;20547;-76
2023/07/11 01:13:16;;;;;;;5.40;5.00;;;19.30;99.90;;;;;;5053082;28;20178;-76
2023/07/11 01:15:42;;;;;;;6.77;5.23;;;19.30;99.90;;;;;;5070887;28;20212;-75
2023/07/11 01:18:07;;;;;;;5.37;4.63;;;19.20;99.90;;;;;;5074463;28;20181;-75
2023/07/11 01:20:33;;;;;;;5.20;4.80;;;19.20;99.90;;;;;;5075059;28;20162;-74
2023/07/11 01:22:58;;;;;;;5.28;4.78;;;19.20;99.90;;;;;;5074940;28;20243;-75
2023/07/11 01:25:24;;;;;;;5.30;4.80;;;19.20;99.90;;;;;;5074852;28;20657;-75
2023/07/11 01:27:50;;;;;;;6.65;5.50;;;19.20;99.90;;;;;;5075054;28;20185;-74
2023/07/11 01:30:19;;;;;;;8.70;6.13;;;19.10;99.90;;;;;;5074972;28;20288;-74
2023/07/11 01:32:45;;;;;;;6.50;5.13;;;19.10;99.90;;;;;;5074527;28;20177;-74
2023/07/11 01:35:11;;;;;;;5.53;5.03;;;19.10;99.90;;;;;;5074617;28;20240;-75
2023/07/11 01:37:37;;;;;;;8.30;5.00;;;19.00;99.90;;;;;;5074625;28;20646;-74
2023/07/11 01:40:05;;;;;;;5.40;5.00;;;19.00;99.90;;;;;;5074752;28;20707;-74
2023/07/11 01:42:32;;;;;;;6.37;5.77;;;18.90;99.90;;;;;;5074458;28;20610;-74
2023/07/11 01:44:58;;;;;;;7.93;5.23;;;18.80;99.90;;;;;;5074689;28;20245;-74
2023/07/11 01:47:23;;;;;;;9.67;5.43;;;18.80;99.90;;;;;;5074424;28;20277;-74
2023/07/11 01:49:49;;;;;;;5.27;4.87;;;18.80;99.90;;;;;;5074462;28;20696;-75
2023/07/11 01:52:19;;;;;;;7.17;4.80;;;18.70;99.90;;;;;;5056324;28;20194;-75
2023/07/11 01:54:45;;;;;;;5.80;5.07;;;18.70;99.90;;;;;;5074483;28;20857;-74
2023/07/11 01:57:11;;;;;;;6.00;4.83;;;18.70;99.90;;;;;;5056562;28;20178;-74
2023/07/11 01:59:38;;;;;;;5.50;5.10;;;18.60;99.90;;;;;;5074290;28;20198;-74
2023/07/11 02:02:05;;;;;;;7.30;6.60;;;18.60;99.90;;;;;;5074562;28;20196;-74
2023/07/11 02:04:33;;;;;;;5.50;5.10;;;18.60;99.90;;;;;;5074054;28;20257;-75
2023/07/11 02:06:59;;;;;;;5.47;4.93;;;18.60;99.90;;;;;;5074242;28;20238;-74
2023/07/11 02:09:24;;;;;;;9.40;5.60;;;18.60;99.90;;;;;;5074211;28;20190;-73
2023/07/11 02:11:50;;;;;;;5.53;4.67;;;18.50;99.90;;;;;;5073973;28;20257;-75
2023/07/11 02:14:18;;;;;;;6.93;4.87;;;18.50;99.90;;;;;;5074165;28;20201;-75
2023/07/11 02:16:45;;;;;;;5.27;4.57;;;18.40;99.90;;;;;;5055964;28;20185;-75
2023/07/11 02:19:12;;;;;;;6.00;5.47;;;18.40;99.90;;;;;;5074495;28;20292;-75
2023/07/11 02:21:39;;;;;;;6.30;5.70;;;18.40;99.90;;;;;;5055575;28;20179;-74
2023/07/11 02:24:07;;;;;;;5.70;5.20;;;18.30;99.90;;;;;;5055739;28;20174;-75
2023/07/11 02:26:32;;;;;;;7.73;4.57;;;18.30;99.90;;;;;;5073839;28;20167;-75
2023/07/11 02:28:58;;;;;;;8.67;5.27;;;18.30;99.90;;;;;;5073742;28;20190;-75
2023/07/11 02:31:24;;;;;;;7.87;5.60;;;18.20;99.90;;;;;;5073616;28;20220;-74
2023/07/11 02:33:49;;;;;;;7.83;4.90;;;18.20;99.90;;;;;;5073470;28;20173;-74
2023/07/11 02:36:15;;;;;;;6.13;5.63;;;18.20;99.90;;;;;;5073816;28;20680;-74
2023/07/11 02:38:41;;;;;;;8.90;5.97;;;18.20;99.90;;;;;;5073615;28;20190;-74
2023/07/11 02:41:06;;;;;;;5.83;5.33;;;18.20;99.90;;;;;;5073575;28;20518;-74
2023/07/11 02:43:32;;;;;;;5.80;5.30;;;18.10;99.90;;;;;;5073110;28;20170;-75
2023/07/11 02:45:57;;;;;;;7.10;5.57;;;18.10;99.90;;;;;;5073669;28;20552;-75
2023/07/11 02:48:26;;;;;;;6.30;5.70;;;18.10;99.90;;;;;;5073213;28;20198;-75
2023/07/11 02:50:51;;;;;;;6.20;5.63;;;18.10;99.90;;;;;;5073419;28;20166;-75
2023/07/11 02:53:17;;;;;;;6.57;5.57;;;18.10;99.90;;;;;;5073000;28;20251;-75
2023/07/11 02:55:43;;;;;;;6.07;5.33;;;18.10;99.90;;;;;;5073140;28;20209;-74
2023/07/11 02:58:09;;;;;;;9.07;6.27;;;18.10;99.90;;;;;;5073321;28;20253;-75
2023/07/11 03:00:35;;;;;;;6.63;5.67;;;18.00;99.90;;;;;;5073232;28;20170;-75
2023/07/11 03:03:01;;;;;;;6.13;5.17;;;18.10;99.90;;;;;;5072965;28;20641;-74
2023/07/11 03:05:27;;;;;;;6.00;5.40;;;18.00;99.90;;;;;;5073025;28;20170;-75
2023/07/11 03:07:52;;;;;;;5.17;4.77;;;18.00;99.90;;;;;;5073155;28;20170;-74
2023/07/11 03:10:18;;;;;;;6.80;5.57;;;18.00;99.90;;;;;;5073079;28;20201;-75
2023/07/11 03:12:43;;;;;;;6.77;5.60;;;18.00;99.90;;;;;;5072747;28;20645;-75
2023/07/11 03:15:09;;;;;;;5.33;4.80;;;18.00;99.90;;;;;;5072872;28;20661;-74
2023/07/11 03:17:35;;;;;;;6.83;5.00;;;18.00;99.90;;;;;;5072625;28;20178;-75
2023/07/11 03:20:00;;;;;;;5.43;4.97;;;18.00;99.90;;;;;;5072873;28;20581;-75
2023/07/11 03:22:27;;;;;;;5.63;5.10;;;18.00;99.90;;;;;;5072515;28;20174;-74
2023/07/11 03:24:52;;;;;;;6.03;5.47;;;18.00;99.90;;;;;;5072824;28;20181;-75
2023/07/11 03:27:18;;;;;;;6.23;4.90;;;18.00;99.90;;;;;;5072822;28;20535;-74
2023/07/11 03:29:44;;;;;;;6.13;5.53;;;18.00;99.90;;;;;;5072446;28;20255;-76
2023/07/11 03:32:10;;;;;;;5.87;5.30;;;18.00;99.90;;;;;;5072626;28;20515;-74
2023/07/11 03:34:37;;;;;;;6.10;5.53;;;18.00;99.90;;;;;;5072138;28;20216;-74
2023/07/11 03:37:02;;;;;;;5.53;5.03;;;17.90;99.90;;;;;;5072680;28;20220;-74
2023/07/11 03:39:28;;;;;;;5.10;4.70;;;17.90;99.90;;;;;;5071698;28;20190;-73
2023/07/11 03:41:54;;;;;;;10.47;5.20;;;17.90;99.90;;;;;;5072503;28;20177;-75
2023/07/11 03:44:19;;;;;;;6.67;5.40;;;17.90;99.90;;;;;;5071706;28;20178;-74
2023/07/11 03:46:45;;;;;;;5.50;5.00;;;17.90;99.90;;;;;;5072192;28;20174;-75
2023/07/11 03:49:10;;;;;;;5.87;5.40;;;17.90;99.90;;;;;;5072237;28;20272;-73
2023/07/11 03:51:36;;;;;;;5.93;5.30;;;17.90;99.90;;;;;;5072169;28;20594;-74
2023/07/11 03:54:03;;;;;;;6.17;4.87;;;17.90;99.90;;;;;;5071917;28;20181;-74
2023/07/11 03:56:28;;;;;;;5.50;5.00;;;17.80;99.90;;;;;;5072167;28;20171;-74
2023/07/11 03:58:54;;;;;;;10.03;5.80;;;17.80;99.90;;;;;;5072294;28;20665;-73
2023/07/11 04:01:20;;;;;;;6.40;5.37;;;17.80;99.90;;;;;;5072073;28;20200;-74
2023/07/11 04:03:46;;;;;;;7.97;5.63;;;17.80;99.90;;;;;;5071686;28;20245;-74
2023/07/11 04:06:12;;;;;;;5.77;5.27;;;17.80;99.90;;;;;;5072256;28;20256;-75
2023/07/11 04:08:38;;;;;;;5.33;4.90;;;17.80;99.90;;;;;;5071767;28;20615;-75
2023/07/11 04:11:04;;;;;;;5.67;4.93;;;17.80;99.90;;;;;;5071890;28;20256;-75
2023/07/11 04:13:29;;;;;;;6.80;5.80;;;17.90;99.90;;;;;;5071017;28;20182;-75
2023/07/11 04:15:55;;;;;;;7.37;5.03;;;17.80;99.90;;;;;;5071757;28;20210;-76
2023/07/11 04:18:21;;;;;;;5.60;5.20;;;17.90;99.90;;;;;;5071642;28;20211;-75
2023/07/11 04:20:47;;;;;;;6.60;5.50;;;17.90;99.90;;;;;;5071681;28;20212;-74
2023/07/11 04:23:16;;;;;;;6.67;5.63;;;17.90;99.90;;;;;;5071361;28;20173;-75
2023/07/11 04:25:41;;;;;;;9.07;5.80;;;17.90;99.90;;;;;;5071554;28;20257;-74
2023/07/11 04:28:07;;;;;;;5.60;5.10;;;17.90;99.90;;;;;;5071673;28;20280;-75
2023/07/11 04:30:33;;;;;;;5.63;4.97;;;17.90;99.90;;;;;;5071426;28;20178;-74
2023/07/11 04:32:59;;;;;;;6.33;5.07;;;18.00;99.90;;;;;;5071293;28;20170;-75
2023/07/11 04:35:25;;;;;;;5.33;4.93;;;18.00;99.90;;;;;;5071279;28;20354;-75
2023/07/11 04:37:50;;;;;;;6.10;5.50;;;18.10;99.90;;;;;;5071361;28;20178;-74
2023/07/11 04:40:17;;;;;;;6.73;6.03;;;18.10;99.90;;;;;;5071187;28;20661;-74
2023/07/11 04:42:42;;;;;;;5.90;5.40;;;18.20;99.90;;;;;;5071241;28;20552;-75
2023/07/11 04:45:09;;;;;;;5.53;5.10;;;18.30;99.90;;;;;;5071303;28;20172;-74
2023/07/11 04:47:35;;;;;;;7.70;6.07;;;18.40;99.90;;;;;;5071304;28;20299;-74
2023/07/11 04:50:02;;;;;;;5.57;5.03;;;18.60;99.90;;;;;;5071336;28;20660;-74
2023/07/11 04:52:28;;;;;;;6.63;5.10;;;18.70;99.90;;;;;;5070066;28;20197;-74
2023/07/11 04:54:54;;;;;;;5.73;5.23;;;18.80;99.90;;;;;;5071231;28;20279;-74
2023/07/11 04:57:22;;;;;;;5.77;5.27;;;18.90;99.90;;;;;;5071203;28;20610;-75
2023/07/11 04:59:48;;;;;;;8.70;5.97;;;18.90;99.90;;;;;;5070914;28;20744;-75
2023/07/11 05:02:13;;;;;;;7.07;5.50;;;19.00;99.90;;;;;;5071115;28;20174;-75
2023/07/11 05:04:39;;;;;;;5.23;4.70;;;19.20;99.90;;;;;;5070965;28;20193;-75
2023/07/11 05:07:05;;;;;;;8.20;5.67;;;19.40;99.90;;;;;;5071113;28;20163;-74
2023/07/11 05:09:31;;;;;;;6.90;4.83;;;19.60;99.90;;;;;;5070506;28;20263;-74
2023/07/11 05:11:57;;;;;;;6.17;5.57;;;19.80;99.90;;;;;;5071143;28;20170;-73
2023/07/11 05:14:23;;;;;;;6.07;5.47;;;20.00;99.90;;;;;;5070791;28;20289;-74
2023/07/11 05:16:49;;;;;;;6.47;5.90;;;20.20;99.90;;;;;;5071120;28;20181;-75
2023/07/11 05:19:15;;;;;;;6.07;5.47;;;20.40;99.90;;;;;;5070790;28;20201;-74
2023/07/11 05:21:41;;;;;;;5.28;4.82;;;20.60;99.90;;;;;;5053126;28;20166;-74
2023/07/11 05:24:07;;;;;;;6.70;5.15;;;20.80;99.90;;;;;;5070791;28;20185;-74
2023/07/11 05:26:33;;;;;;;9.57;8.88;;;21.00;99.90;;;;;;5052701;28;20178;-75
2023/07/11 05:28:58;;;;;;;4.95;4.53;;;21.10;99.90;;;;;;5070861;28;20194;-74
2023/07/11 05:31:25;;;;;;;7.50;5.93;;;21.10;99.90;;;;;;5070794;28;20181;-73
2023/07/11 05:33:53;;;;;;;6.97;6.18;;;21.10;99.90;;;;;;5070356;28;20227;-73
2023/07/11 05:36:33;;;;;;;9.85;6.55;;;21.10;99.90;;;;;;5051008;28;20203;-73
2023/07/11 05:39:10;;;;;;;6.47;5.45;;;21.10;99.90;;;;;;5051004;28;20194;-74
2023/07/11 05:41:37;;;;;;;9.23;8.32;;;21.00;99.90;;;;;;5060956;28;20192;-74
2023/07/11 05:44:04;;;;;;;6.72;6.18;;;21.10;99.90;;;;;;5070382;28;20166;-75
2023/07/11 05:46:30;;;;;;;6.38;5.13;;;21.20;99.90;;;;;;5052632;28;20542;-74
2023/07/11 05:48:57;;;;;;;4.75;4.35;;;21.50;99.90;;;;;;5070768;28;20194;-75
2023/07/11 05:51:23;;;;;;;9.45;8.80;;;21.80;99.90;;;;;;5069767;28;20178;-76
2023/07/11 05:53:49;;;;;;;4.53;4.00;;;22.30;99.90;;;;;;5052015;28;20250;-75
2023/07/11 05:56:16;;;;;;;101.65;41.33;;;22.70;99.90;;;;;;5070849;28;20206;-76
2023/07/11 05:58:43;;;;;;;5.47;4.90;;;23.10;99.90;;;;;;5069581;28;20190;-76
2023/07/11 06:01:11;;;;;;;6.40;4.72;;;23.60;99.90;;;;;;5070455;28;20174;-75
2023/07/11 06:03:40;;;;;;;4.97;4.45;;;24.00;99.90;;;;;;5072281;28;20181;-75
2023/07/11 06:06:07;;;;;;;6.63;5.20;;;24.40;99.90;;;;;;5056412;28;20186;-76
2023/07/11 06:08:33;;;;;;;4.57;4.20;;;24.70;99.90;;;;;;5073978;28;20225;-76
2023/07/11 06:11:00;;;;;;;5.63;5.05;;;24.90;99.90;;;;;;5074298;28;20202;-75
2023/07/11 06:13:28;;;;;;;6.63;3.92;;;25.10;99.90;;;;;;5073550;28;20181;-75
2023/07/11 06:16:02;;;;;;;6.78;6.18;;;25.40;99.90;;;;;;5073940;28;20212;-76
2023/07/11 06:18:28;;;;;;;7.18;6.47;;;25.50;99.90;;;;;;5056148;28;20627;-74
2023/07/11 06:20:53;;;;;;;4.65;4.25;;;25.70;99.90;;;;;;5073956;28;20167;-75
2023/07/11 06:23:19;;;;;;;4.38;3.97;;;25.90;99.90;;;;;;5073679;28;20590;-77
2023/07/11 06:25:47;;;;;;;4.63;4.32;;;26.10;99.90;;;;;;5073957;28;20186;-76
2023/07/11 06:28:12;;;;;;;6.80;6.22;;;26.40;99.90;;;;;;5073478;28;20424;-75
2023/07/11 06:30:41;;;;;;;5.55;4.25;;;26.70;99.90;;;;;;5055691;28;20186;-75
2023/07/11 06:33:12;;;;;;;5.03;4.50;;;27.00;99.90;;;;;;5073541;28;20170;-76
2023/07/11 06:35:39;;;;;;;5.25;4.95;;;27.30;99.90;;;;;;5072926;28;20205;-75
2023/07/11 06:38:04;;;;;;;7.78;5.95;;;27.50;99.90;;;;;;5055570;28;20196;-75
2023/07/11 06:40:30;;;;;;;7.43;5.13;;;27.50;99.90;;;;;;5073508;28;20170;-75
2023/07/11 06:42:55;;;;;;;4.30;3.72;;;27.50;99.90;;;;;;5073224;28;20245;-76
2023/07/11 06:45:21;;;;;;;5.28;4.43;;;27.60;99.90;;;;;;5073445;28;20251;-74
2023/07/11 06:47:47;;;;;;;5.70;4.43;;;27.60;99.90;;;;;;5073281;28;20718;-76
2023/07/11 06:50:12;;;;;;;7.40;5.68;;;27.70;99.90;;;;;;5072468;28;20193;-75
2023/07/11 06:52:39;;;;;;;7.40;5.35;;;27.90;99.90;;;;;;5072821;28;20181;-76
2023/07/11 06:55:05;;;;;;;5.13;4.72;;;28.00;99.90;;;;;;5073013;28;20201;-76
2023/07/11 06:57:31;;;;;;;4.28;3.88;;;28.40;99.90;;;;;;5053942;28;20174;-76
2023/07/11 06:59:56;;;;;;;4.28;3.88;;;28.60;99.90;;;;;;5073093;28;20281;-75
2023/07/11 07:02:22;;;;;;;8.90;4.05;;;28.80;99.90;;;;;;5073037;28;20663;-75
2023/07/11 07:04:47;;;;;;;4.95;3.80;;;29.00;99.90;;;;;;5034281;28;20244;-75
2023/07/11 07:07:13;;;;;;;5.07;4.68;;;29.20;99.90;;;;;;5053147;28;20590;-75
2023/07/11 07:09:38;;;;;;;5.85;3.78;;;29.50;99.90;;;;;;5052766;28;20360;-76
2023/07/11 07:12:06;;;;;;;5.07;3.58;;;29.80;99.90;;;;;;5053103;28;20199;-76
2023/07/11 07:14:31;;;;;;;3.97;3.30;;;30.20;99.90;;;;;;5071498;28;20576;-74
2023/07/11 07:16:57;;;;;;;4.78;3.10;;;30.40;99.90;;;;;;5072492;28;20170;-76
2023/07/11 07:19:22;;;;;;;3.38;2.85;;;30.50;99.90;;;;;;5072589;28;20760;-75
2023/07/11 07:21:48;;;;;;;3.92;3.10;;;30.60;99.90;;;;;;5072671;28;20171;-73
2023/07/11 07:24:13;;;;;;;4.00;3.60;;;30.60;99.90;;;;;;5072289;28;20494;-75
2023/07/11 07:26:41;;;;;;;4.10;3.83;;;30.50;99.90;;;;;;5072641;28;20192;-74
2023/07/11 07:29:07;;;;;;;5.68;3.70;;;30.70;99.90;;;;;;5072638;28;20182;-75
2023/07/11 07:31:32;;;;;;;5.15;3.53;;;30.90;99.90;;;;;;5072370;28;20162;-75
2023/07/11 07:33:58;;;;;;;3.45;3.15;;;31.20;99.90;;;;;;5072356;28;20173;-76
2023/07/11 07:36:23;;;;;;;3.53;3.28;;;31.40;99.90;;;;;;5072465;28;20315;-75
2023/07/11 07:38:49;;;;;;;3.47;3.17;;;31.60;99.90;;;;;;5072489;28;20185;-75
2023/07/11 07:41:15;;;;;;;4.30;4.00;;;31.80;99.90;;;;;;5072504;28;20259;-75
2023/07/11 07:43:43;;;;;;;3.75;3.10;;;31.90;99.90;;;;;;5071794;28;20174;-74
2023/07/11 07:46:13;;;;;;;3.50;3.20;;;32.10;99.90;;;;;;5071974;28;20622;-74
2023/07/11 07:48:39;;;;;;;4.53;3.50;;;32.00;99.90;;;;;;5070732;28;20280;-75
2023/07/11 07:51:16;;;;;;;4.35;3.25;;;32.00;99.90;;;;;;5071973;28;20313;-75
2023/07/11 07:53:42;;;;;;;8.50;3.38;;;32.10;99.90;;;;;;5054070;28;20712;-75
2023/07/11 07:56:28;;;;;;;4.63;3.35;;;32.30;99.90;;;;;;5072021;28;20327;-75
2023/07/11 07:58:54;;;;;;;4.93;3.00;;;32.50;99.90;;;;;;5072080;28;20182;-76
2023/07/11 08:01:20;;;;;;;11.57;3.67;;;32.70;99.90;;;;;;5072117;28;20167;-73
2023/07/11 08:03:46;;;;;;;7.18;4.68;;;32.90;99.90;;;;;;5071348;28;20170;-75
2023/07/11 08:06:14;;;;;;;3.83;3.42;;;32.40;99.90;;;;;;5071985;28;20177;-75
2023/07/11 08:08:39;;;;;;;5.57;5.07;;;31.90;99.90;;;;;;5071664;28;20247;-74
2023/07/11 08:11:07;;;;;;;5.78;5.05;;;31.60;99.90;;;;;;5071277;28;20571;-74
2023/07/11 08:13:34;;;;;;;7.68;3.28;;;31.40;99.90;;;;;;5061990;28;20178;-75
2023/07/11 08:16:00;;;;;;;3.45;3.15;;;31.40;99.90;;;;;;5071647;28;20292;-74
2023/07/11 08:18:26;;;;;;;6.50;3.38;;;31.50;99.90;;;;;;5071898;28;20280;-75
2023/07/11 08:20:51;;;;;;;4.57;2.97;;;31.70;99.90;;;;;;5071806;28;20177;-74
2023/07/11 08:23:17;;;;;;;4.63;3.47;;;31.50;99.90;;;;;;5071385;28;20208;-72
2023/07/11 08:25:43;;;;;;;3.35;3.10;;;31.70;99.90;;;;;;5071476;28;20178;-74
2023/07/11 08:28:08;;;;;;;4.25;2.92;;;31.70;99.90;;;;;;5071599;28;20688;-73
2023/07/11 08:30:35;;;;;;;4.40;3.78;;;31.60;99.90;;;;;;5071169;28;20228;-74
2023/07/11 08:33:01;;;;;;;4.88;3.30;;;31.60;99.90;;;;;;5070942;28;20170;-74
2023/07/11 08:35:27;;;;;;;4.00;3.13;;;31.80;99.90;;;;;;5071363;28;20677;-74
2023/07/11 08:37:52;;;;;;;7.75;3.80;;;32.20;99.90;;;;;;5071287;28;20170;-74
2023/07/11 08:40:22;;;;;;;6.97;4.40;;;32.60;99.90;;;;;;5071422;28;20543;-74
2023/07/11 08:42:48;;;;;;;3.50;3.20;;;33.20;99.90;;;;;;5071209;28;20173;-74
2023/07/11 08:45:20;;;;;;;3.70;3.25;;;33.80;99.90;;;;;;5071458;28;20174;-75
2023/07/11 08:47:57;;;;;;;6.10;5.53;;;34.40;99.90;;;;;;5071539;28;20213;-76
2023/07/11 08:50:28;;;;;;;6.07;5.47;;;34.50;99.90;;;;;;5071319;28;20195;-74
2023/07/11 08:53:08;;;;;;;4.43;3.83;;;34.70;99.90;;;;;;5071179;28;20192;-73
2023/07/11 08:55:37;;;;;;;4.63;3.67;;;34.60;99.90;;;;;;5071314;28;20202;-73
2023/07/11 08:58:05;;;;;;;4.47;3.10;;;34.90;99.90;;;;;;5071168;28;20245;-71
2023/07/11 09:00:33;;;;;;;3.30;3.00;;;34.80;99.20;;;;;;5071195;28;20193;-75
2023/07/11 09:03:12;;;;;;;3.95;3.28;;;34.80;99.90;;;;;;5070012;28;20652;-74
2023/07/11 09:05:54;;;;;;;4.90;3.05;;;35.00;99.70;;;;;;5071041;28;20537;-74
2023/07/11 09:08:20;;;;;;;6.85;3.47;;;34.80;99.70;;;;;;5070027;28;20202;-74
2023/07/11 09:10:55;;;;;;;6.47;3.00;;;34.70;99.40;;;;;;5071447;28;20170;-74
2023/07/11 09:13:42;;;;;;;3.80;3.50;;;35.20;99.90;;;;;;5070294;28;20173;-75
2023/07/11 09:16:14;;;;;;;6.60;3.92;;;35.80;98.70;;;;;;5071125;28;20202;-75
2023/07/11 09:19:02;;;;;;;5.68;2.83;;;35.80;97.60;;;;;;5070656;28;20213;-75
2023/07/11 09:21:52;;;;;;;4.85;3.97;;;35.80;98.50;;;;;;5071184;28;20174;-75
2023/07/11 09:24:46;;;;;;;6.85;3.40;;;35.90;98.80;;;;;;5070827;28;20162;-75
2023/07/11 09:27:34;;;;;;;3.90;3.40;;;36.20;99.00;;;;;;5052189;28;20170;-76
2023/07/11 09:30:08;;;;;;;4.75;3.08;;;36.30;97.50;;;;;;5070685;28;20626;-75
2023/07/11 09:32:35;;;;;;;5.13;4.03;;;36.50;98.00;;;;;;5070414;28;20249;-74
2023/07/11 09:35:20;;;;;;;6.15;3.80;;;36.60;95.30;;;;;;5070984;28;20194;-74
2023/07/11 09:37:51;;;;;;;4.63;3.47;;;36.10;95.40;;;;;;5070719;28;20174;-73
2023/07/11 09:40:31;;;;;;;5.53;4.13;;;35.50;95.00;;;;;;5075006;28;20189;-75
2023/07/11 09:42:57;;;;;;;3.50;2.70;;;34.80;95.40;;;;;;5074209;28;20170;-74
2023/07/11 09:45:32;;;;;;;3.03;2.83;;;34.70;97.00;;;;;;5074577;28;20177;-74
2023/07/11 09:48:26;;;;;;;3.75;3.10;;;34.80;95.90;;;;;;5074892;28;20536;-75
2023/07/11 09:51:24;;;;;;;6.45;3.40;;;35.50;99.10;;;;;;5066669;28;20186;-75
2023/07/11 09:53:50;;;;;;;4.95;4.57;;;35.60;95.70;;;;;;5073965;28;20520;-75
2023/07/11 09:56:17;;;;;;;4.07;3.17;;;35.50;95.40;;;;;;5056321;28;20208;-74
2023/07/11 09:58:53;;;;;;;5.07;4.68;;;35.70;95.70;;;;;;5074210;28;20763;-76
2023/07/11 10:01:24;;;;;;;3.78;3.40;;;36.00;96.80;;;;;;5074776;28;20808;-75
2023/07/11 10:03:53;;;;;;;3.53;2.97;;;36.50;97.90;;;;;;5073925;28;20176;-75
2023/07/11 10:06:42;;;;;;;6.15;3.15;;;36.90;95.70;;;;;;5073372;28;20205;-76
2023/07/11 10:09:26;;;;;;;5.95;2.60;;;37.10;95.10;;;;;;5073822;28;20201;-74
2023/07/11 10:11:57;;;;;;;3.28;2.83;;;37.30;93.40;;;;;;5071786;28;20182;-73
2023/07/11 10:14:32;;;;;;;3.83;2.80;;;37.40;93.40;;;;;;5073943;28;20174;-74
2023/07/11 10:17:01;;;;;;;3.40;3.10;;;37.10;92.70;;;;;;5073049;28;20251;-75
2023/07/11 10:19:28;;;;;;;2.80;2.58;;;37.10;93.80;;;;;;5073902;28;20201;-75
2023/07/11 10:21:58;;;;;;;6.78;3.20;;;37.10;92.20;;;;;;5074004;28;20178;-73
2023/07/11 10:24:26;;;;;;;4.47;3.30;;;36.60;92.50;;;;;;5072526;28;20177;-74
2023/07/11 10:27:03;;;;;;;4.22;3.75;;;36.50;93.40;;;;;;5074092;28;20664;-74
2023/07/11 10:29:36;;;;;;;10.95;3.85;;;35.60;92.20;;;;;;5073631;28;20196;-75
2023/07/11 10:32:11;;;;;;;5.07;4.50;;;35.10;94.00;;;;;;5072314;28;20223;-74
2023/07/11 10:34:44;;;;;;;6.97;4.20;;;35.50;94.40;;;;;;5053566;28;20216;-75
2023/07/11 10:37:18;;;;;;;3.20;3.00;;;36.00;96.00;;;;;;5053808;28;20183;-74
2023/07/11 10:39:51;;;;;;;6.07;3.50;;;36.30;93.20;;;;;;5053602;28;20604;-73
2023/07/11 10:43:06;;;;;;;3.95;3.03;;;36.30;92.30;;;;;;5053592;28;20182;-74
2023/07/11 10:45:39;;;;;;;5.72;3.00;;;36.50;92.40;;;;;;4972670;28;20756;-76
2023/07/11 10:48:20;;;;;;;5.95;3.08;;;36.70;93.50;;;;;;4972674;28;20177;-76
2023/07/11 10:50:55;;;;;;;3.25;3.05;;;37.00;92.30;;;;;;5021159;28;20548;-75
2023/07/11 10:53:28;;;;;;;3.92;3.60;;;36.90;91.60;;;;;;5053182;28;20632;-74
2023/07/11 10:56:19;;;;;;;4.90;3.67;;;36.50;90.30;;;;;;5053516;28;20202;-74
2023/07/11 10:58:45;;;;;;;3.78;3.45;;;36.50;90.90;;;;;;5035513;28;20195;-75
2023/07/11 11:01:31;;;;;;;3.38;3.08;;;36.60;93.90;;;;;;5061026;28;20535;-75
2023/07/11 11:04:15;;;;;;;3.10;2.80;;;36.70;91.70;;;;;;5071816;28;20182;-74
2023/07/11 11:06:59;;;;;;;3.25;3.03;;;36.90;92.60;;;;;;5053160;28;20210;-75
2023/07/11 11:09:35;;;;;;;3.45;3.15;;;36.90;92.70;;;;;;5056067;28;20202;-74
2023/07/11 11:12:19;;;;;;;4.57;3.75;;;36.90;91.50;;;;;;5073247;28;20193;-74
2023/07/11 11:15:02;;;;;;;3.47;3.15;;;37.00;92.70;;;;;;5072979;28;20193;-75
2023/07/11 11:17:38;;;;;;;4.38;3.28;;;36.70;93.10;;;;;;5072980;28;20212;-75
2023/07/11 11:20:12;;;;;;;2.92;2.72;;;36.40;91.90;;;;;;5072935;28;20288;-74
2023/07/11 11:23:02;;;;;;;3.28;3.03;;;36.40;90.60;;;;;;5072665;28;20178;-74
2023/07/11 11:25:43;;;;;;;4.40;3.97;;;36.50;90.80;;;;;;5072921;28;20676;-75
2023/07/11 11:28:31;;;;;;;3.17;2.90;;;36.50;91.10;;;;;;5072972;28;20178;-74
2023/07/11 11:31:10;;;;;;;5.50;3.00;;;36.40;91.40;;;;;;5073001;28;20174;-75
2023/07/11 11:33:57;;;;;;;3.30;3.00;;;36.50;90.60;;;;;;5072145;28;20170;-74
2023/07/11 11:36:28;;;;;;;4.18;3.78;;;36.40;89.90;;;;;;5070711;28;20217;-74
2023/07/11 11:39:16;;;;;;;3.33;2.75;;;36.10;88.00;;;;;;5072432;28;20201;-75
2023/07/11 11:41:50;;;;;;;3.38;3.08;;;35.90;90.10;;;;;;5072408;28;20573;-75
2023/07/11 11:44:18;;;;;;;4.18;3.33;;;35.60;90.30;;;;;;5072610;28;20633;-74
2023/07/11 11:46:45;;;;;;;6.15;3.10;;;35.60;91.90;;;;;;5072137;28;20638;-75
2023/07/11 11:49:12;;;;;;;4.07;3.78;;;35.70;90.50;;;;;;5072131;28;20202;-76
2023/07/11 11:51:40;;;;;;;4.30;3.90;;;36.10;91.60;;;;;;5072145;28;20185;-75
2023/07/11 11:54:19;;;;;;;4.63;4.22;;;36.50;90.80;;;;;;5072020;28;20179;-74
2023/07/11 11:56:48;;;;;;;4.88;4.32;;;36.50;88.60;;;;;;5072245;28;20186;-72
2023/07/11 11:59:20;;;;;;;4.47;4.07;;;36.50;88.50;;;;;;5072235;28;20194;-74
2023/07/11 12:01:58;;;;;;;7.03;6.05;;;36.50;90.00;;;;;;5071670;28;20257;-75
2023/07/11 12:04:29;;;;;;;5.00;3.75;;;36.40;89.50;;;;;;5071849;28;20170;-75
2023/07/11 12:07:10;;;;;;;3.35;3.05;;;36.50;88.00;;;;;;5071453;28;20660;-76
2023/07/11 12:09:48;;;;;;;5.57;4.13;;;36.60;90.90;;;;;;5070235;28;20202;-75
2023/07/11 12:12:21;;;;;;;4.07;3.55;;;36.80;88.10;;;;;;5071934;28;20205;-74
2023/07/11 12:14:51;;;;;;;5.68;4.30;;;36.50;84.60;;;;;;5071733;28;20194;-75
2023/07/11 12:17:32;;;;;;;3.47;3.17;;;35.90;88.40;;;;;;5071951;28;20162;-75
2023/07/11 12:20:24;;;;;;;3.45;3.15;;;36.10;93.10;;;;;;5071652;28;20206;-73
2023/07/11 12:22:49;;;;;;;3.78;3.25;;;36.10;88.90;;;;;;5071256;28;20673;-75
2023/07/11 12:25:20;;;;;;;3.47;3.17;;;36.10;92.20;;;;;;5071845;28;20208;-75
2023/07/11 12:28:01;;;;;;;3.85;3.47;;;36.20;89.60;;;;;;5070357;28;20170;-75
2023/07/11 12:30:26;;;;;;;6.22;3.85;;;36.20;88.50;;;;;;5072004;28;20203;-75
2023/07/11 12:32:56;;;;;;;4.70;4.20;;;36.40;88.80;;;;;;5071049;28;20273;-75
2023/07/11 12:35:33;;;;;;;656.38;524.45;;;36.20;86.80;;;;;;5071527;28;20205;-76
2023/07/11 12:38:02;;;;;;;4.68;4.28;;;36.40;88.80;;;;;;5071558;28;20581;-75
2023/07/11 12:41:08;;;;;;;4.22;3.83;;;36.60;87.20;;;;;;5071376;28;20178;-75
2023/07/11 12:43:36;;;;;;;4.85;4.45;;;36.90;90.20;;;;;;5071016;28;20170;-75
2023/07/11 12:46:26;;;;;;;4.90;4.55;;;37.30;87.50;;;;;;5071112;28;20178;-73
2023/07/11 12:48:54;;;;;;;8.52;3.90;;;37.10;87.30;;;;;;5071341;28;20219;-75
2023/07/11 12:51:33;;;;;;;3.95;3.58;;;37.00;85.80;;;;;;5071257;28;20193;-75
2023/07/11 12:54:12;;;;;;;6.32;3.83;;;36.70;86.80;;;;;;5071045;28;20633;-76
2023/07/11 12:56:46;;;;;;;5.30;4.25;;;36.70;85.00;;;;;;5071220;28;20209;-74
2023/07/11 12:59:22;;;;;;;4.88;3.95;;;36.50;85.00;;;;;;5070281;28;20251;-74